createdAt,value
2018-09-10T00:00:16.738Z,14.10
2018-09-10T00:02:45.127Z,13.90
2018-09-10T00:05:13.485Z,13.90
2018-09-10T00:07:41.938Z,13.90
2018-09-10T00:10:10.309Z,13.80
2018-09-10T00:12:38.652Z,13.80
2018-09-10T00:15:07.027Z,13.80
2018-09-10T00:17:35.391Z,13.90
2018-09-10T00:20:03.805Z,13.90
2018-09-10T00:22:32.145Z,13.80
2018-09-10T00:25:00.510Z,13.80
2018-09-10T00:27:28.820Z,13.80
2018-09-10T00:29:57.165Z,13.80
2018-09-10T00:32:26.080Z,13.80
2018-09-10T00:34:54.593Z,13.70
2018-09-10T00:37:23.010Z,13.70
2018-09-10T00:39:51.364Z,13.70
2018-09-10T00:42:19.684Z,13.60
2018-09-10T00:44:48.041Z,13.60
2018-09-10T00:47:16.555Z,13.50
2018-09-10T00:49:44.882Z,13.60
2018-09-10T00:52:13.248Z,13.60
2018-09-10T00:54:41.599Z,13.60
2018-09-10T00:57:09.966Z,13.60
2018-09-10T00:59:38.317Z,13.60
2018-09-10T01:02:06.692Z,13.60
2018-09-10T01:04:35.044Z,13.50
2018-09-10T01:07:03.459Z,13.50
2018-09-10T01:09:31.814Z,13.50
2018-09-10T01:12:00.296Z,13.50
2018-09-10T01:14:28.612Z,13.40
2018-09-10T01:16:56.980Z,13.40
2018-09-10T01:19:25.683Z,13.40
2018-09-10T01:21:54.041Z,13.40
2018-09-10T01:24:22.357Z,13.30
2018-09-10T01:26:50.743Z,13.20
2018-09-10T01:29:19.139Z,13.20
2018-09-10T01:31:47.473Z,13.20
2018-09-10T01:34:21.126Z,13.20
2018-09-10T01:36:49.461Z,13.10
2018-09-10T01:39:17.792Z,13.10
2018-09-10T01:41:46.160Z,13.10
2018-09-10T01:44:14.487Z,13.00
2018-09-10T01:46:42.892Z,13.00
2018-09-10T01:49:11.209Z,12.90
2018-09-10T01:51:39.557Z,12.90
2018-09-10T01:54:07.840Z,12.80
2018-09-10T01:56:36.172Z,12.70
2018-09-10T01:59:04.657Z,12.70
2018-09-10T02:01:33.021Z,12.70
2018-09-10T02:04:01.396Z,12.70
2018-09-10T02:06:29.743Z,12.60
2018-09-10T02:08:58.080Z,12.60
2018-09-10T02:11:26.439Z,12.60
2018-09-10T02:13:54.797Z,12.60
2018-09-10T02:16:23.149Z,12.70
2018-09-10T02:18:51.457Z,12.60
2018-09-10T02:21:19.812Z,12.40
2018-09-10T02:23:48.122Z,12.30
2018-09-10T02:26:16.459Z,12.20
2018-09-10T02:28:44.844Z,12.20
2018-09-10T02:31:13.200Z,12.10
2018-09-10T02:33:41.591Z,12.10
2018-09-10T02:36:09.958Z,12.00
2018-09-10T02:38:38.383Z,12.10
2018-09-10T02:41:06.825Z,12.10
2018-09-10T02:43:35.176Z,12.20
2018-09-10T02:46:03.488Z,12.20
2018-09-10T02:48:31.865Z,12.20
2018-09-10T02:51:00.242Z,12.20
2018-09-10T02:53:28.628Z,12.30
2018-09-10T02:55:57.000Z,12.30
2018-09-10T02:58:25.333Z,12.20
2018-09-10T03:00:53.685Z,12.10
2018-09-10T03:03:22.069Z,12.10
2018-09-10T03:05:50.425Z,12.10
2018-09-10T03:08:18.768Z,12.10
2018-09-10T03:10:47.145Z,12.20
2018-09-10T03:13:15.495Z,12.10
2018-09-10T03:15:43.832Z,11.90
2018-09-10T03:18:12.188Z,11.90
2018-09-10T03:20:40.520Z,11.90
2018-09-10T03:23:08.916Z,11.90
2018-09-10T03:25:37.240Z,11.90
2018-09-10T03:28:05.611Z,11.90
2018-09-10T03:30:33.939Z,11.90
2018-09-10T03:33:02.316Z,11.90
2018-09-10T03:35:30.634Z,11.90
2018-09-10T03:37:59.025Z,11.80
2018-09-10T03:40:27.365Z,11.90
2018-09-10T03:42:55.720Z,11.90
2018-09-10T03:45:24.062Z,11.90
2018-09-10T03:47:52.488Z,11.90
2018-09-10T03:50:20.882Z,11.90
2018-09-10T03:52:49.240Z,11.90
2018-09-10T03:55:17.589Z,11.90
2018-09-10T03:57:45.987Z,11.90
2018-09-10T04:00:14.344Z,11.90
2018-09-10T04:02:42.685Z,11.90
2018-09-10T04:05:11.050Z,11.80
2018-09-10T04:07:39.405Z,11.80
2018-09-10T04:10:07.801Z,11.70
2018-09-10T04:12:36.154Z,11.70
2018-09-10T04:15:04.880Z,11.60
2018-09-10T04:17:33.361Z,11.60
2018-09-10T04:20:06.913Z,11.60
2018-09-10T04:22:35.280Z,11.60
2018-09-10T04:25:03.791Z,11.60
2018-09-10T04:27:32.312Z,11.60
2018-09-10T04:30:00.656Z,11.60
2018-09-10T04:32:29.027Z,11.60
2018-09-10T04:34:57.415Z,11.60
2018-09-10T04:37:25.796Z,11.60
2018-09-10T04:39:54.199Z,11.60
2018-09-10T04:42:22.570Z,11.60
2018-09-10T04:44:50.856Z,11.60
2018-09-10T04:47:19.185Z,11.60
2018-09-10T04:49:47.616Z,11.60
2018-09-10T04:52:15.948Z,11.60
2018-09-10T04:54:44.316Z,11.50
2018-09-10T04:57:12.641Z,11.40
2018-09-10T04:59:41.001Z,11.40
2018-09-10T05:02:09.345Z,11.50
2018-09-10T05:04:37.767Z,11.40
2018-09-10T05:07:06.035Z,11.40
2018-09-10T05:09:34.370Z,11.50
2018-09-10T05:12:02.758Z,11.50
2018-09-10T05:14:31.163Z,11.50
2018-09-10T05:17:01.649Z,11.50
2018-09-10T05:19:30.887Z,11.40
2018-09-10T05:21:59.372Z,11.40
2018-09-10T05:24:27.627Z,11.40
2018-09-10T05:26:56.018Z,11.50
2018-09-10T05:29:24.446Z,11.50
2018-09-10T05:31:52.797Z,11.50
2018-09-10T05:34:21.216Z,11.50
2018-09-10T05:36:49.571Z,11.60
2018-09-10T05:39:17.958Z,11.70
2018-09-10T05:41:46.410Z,11.70
2018-09-10T05:44:14.710Z,11.80
2018-09-10T05:46:43.084Z,11.90
2018-09-10T05:49:11.477Z,12.00
2018-09-10T05:51:39.827Z,12.10
2018-09-10T05:54:08.154Z,12.10
2018-09-10T05:56:36.493Z,12.20
2018-09-10T05:59:04.886Z,12.30
2018-09-10T06:01:33.209Z,12.30
2018-09-10T06:04:01.545Z,12.30
2018-09-10T06:06:29.930Z,12.40
2018-09-10T06:08:58.268Z,12.50
2018-09-10T06:11:26.619Z,12.50
2018-09-10T06:13:55.061Z,12.60
2018-09-10T06:16:23.849Z,12.60
2018-09-10T06:18:52.160Z,12.70
2018-09-10T06:21:20.536Z,12.70
2018-09-10T06:23:48.872Z,12.80
2018-09-10T06:26:17.228Z,12.90
2018-09-10T06:28:45.612Z,13.00
2018-09-10T06:31:13.975Z,13.10
2018-09-10T06:33:42.289Z,13.20
2018-09-10T06:36:10.685Z,13.30
2018-09-10T06:38:39.355Z,13.40
2018-09-10T06:41:07.747Z,13.50
2018-09-10T06:43:36.103Z,13.60
2018-09-10T06:46:04.541Z,13.80
2018-09-10T06:48:35.485Z,13.90
2018-09-10T06:51:05.465Z,13.90
2018-09-10T06:53:33.875Z,14.00
2018-09-10T06:56:03.390Z,14.10
2018-09-10T06:58:31.844Z,14.20
2018-09-10T07:01:00.390Z,14.30
2018-09-10T07:03:28.876Z,14.40
2018-09-10T07:05:57.245Z,14.50
2018-09-10T07:08:25.639Z,14.70
2018-09-10T07:10:54.020Z,14.80
2018-09-10T07:13:22.566Z,14.90
2018-09-10T07:15:50.934Z,15.10
2018-09-10T07:18:19.292Z,15.30
2018-09-10T07:20:47.684Z,15.50
2018-09-10T07:23:16.012Z,15.60
2018-09-10T07:25:44.365Z,15.80
2018-09-10T07:28:13.118Z,16.00
2018-09-10T07:30:41.513Z,16.20
2018-09-10T07:33:09.915Z,16.40
2018-09-10T07:35:38.272Z,16.60
2018-09-10T07:38:07.383Z,16.80
2018-09-10T07:40:35.720Z,17.00
2018-09-10T07:43:04.080Z,17.20
2018-09-10T07:45:32.437Z,17.40
2018-09-10T07:48:00.800Z,17.50
2018-09-10T07:50:29.145Z,17.70
2018-09-10T07:52:57.566Z,17.90
2018-09-10T07:55:25.880Z,18.10
2018-09-10T07:57:54.260Z,18.30
2018-09-10T08:00:22.661Z,18.40
2018-09-10T08:02:51.381Z,18.50
2018-09-10T08:05:19.796Z,18.50
2018-09-10T08:07:48.115Z,18.60
2018-09-10T08:10:16.541Z,18.60
2018-09-10T08:12:44.869Z,18.60
2018-09-10T08:15:13.316Z,18.70
2018-09-10T08:17:41.679Z,18.80
2018-09-10T08:20:10.093Z,18.80
2018-09-10T08:22:38.471Z,18.80
2018-09-10T08:25:06.846Z,18.90
2018-09-10T08:27:35.208Z,19.00
2018-09-10T08:30:03.603Z,19.10
2018-09-10T08:32:31.921Z,19.30
2018-09-10T08:35:00.265Z,19.30
2018-09-10T08:37:28.611Z,19.60
2018-09-10T08:39:56.935Z,19.70
2018-09-10T08:42:25.297Z,19.90
2018-09-10T08:44:53.600Z,20.10
2018-09-10T08:47:21.984Z,20.30
2018-09-10T08:49:50.377Z,20.40
2018-09-10T08:52:18.756Z,20.60
2018-09-10T08:54:47.281Z,20.80
2018-09-10T08:57:15.516Z,21.00
2018-09-10T08:59:43.905Z,21.10
2018-09-10T09:02:12.256Z,21.10
2018-09-10T09:04:40.596Z,21.20
2018-09-10T09:07:08.960Z,21.20
2018-09-10T09:09:37.289Z,21.30
2018-09-10T09:12:05.636Z,21.40
2018-09-10T09:14:33.992Z,21.60
2018-09-10T09:17:02.371Z,21.70
2018-09-10T09:19:30.692Z,21.90
2018-09-10T09:21:59.043Z,22.00
2018-09-10T09:24:27.412Z,22.20
2018-09-10T09:26:55.765Z,22.20
2018-09-10T09:29:24.103Z,22.30
2018-09-10T09:31:52.605Z,22.30
2018-09-10T09:34:20.977Z,22.40
2018-09-10T09:36:54.690Z,22.60
2018-09-10T09:39:28.269Z,22.90
2018-09-10T09:42:02.048Z,22.90
2018-09-10T09:44:35.928Z,23.00
2018-09-10T09:47:04.307Z,23.00
2018-09-10T09:49:32.660Z,23.10
2018-09-10T09:52:01.044Z,23.20
2018-09-10T09:54:29.427Z,23.30
2018-09-10T09:56:57.789Z,23.30
2018-09-10T09:59:26.178Z,23.30
2018-09-10T10:02:00.051Z,23.30
2018-09-10T10:04:28.458Z,23.50
2018-09-10T10:06:56.793Z,23.80
2018-09-10T10:09:25.126Z,24.00
2018-09-10T10:11:53.525Z,24.20
2018-09-10T10:14:21.866Z,24.30
2018-09-10T10:16:50.215Z,24.40
2018-09-10T10:19:18.522Z,24.60
2018-09-10T10:21:46.868Z,24.70
2018-09-10T10:24:15.199Z,24.70
2018-09-10T10:26:43.522Z,24.70
2018-09-10T10:29:11.885Z,24.70
2018-09-10T10:31:40.204Z,25.00
2018-09-10T10:34:08.537Z,25.30
2018-09-10T10:36:36.975Z,25.50
2018-09-10T10:39:06.561Z,25.50
2018-09-10T10:41:34.962Z,25.70
2018-09-10T10:44:03.346Z,25.90
2018-09-10T10:46:31.727Z,26.10
2018-09-10T10:49:00.079Z,26.40
2018-09-10T10:51:28.468Z,26.50
2018-09-10T10:53:56.860Z,26.80
2018-09-10T10:56:25.208Z,27.00
2018-09-10T10:58:53.561Z,27.10
2018-09-10T11:01:21.877Z,27.40
2018-09-10T11:03:50.313Z,27.20
2018-09-10T11:06:18.684Z,27.20
2018-09-10T11:08:47.081Z,27.30
2018-09-10T11:11:15.468Z,27.40
2018-09-10T11:13:43.840Z,27.50
2018-09-10T11:16:12.192Z,27.60
2018-09-10T11:18:40.516Z,27.70
2018-09-10T11:21:08.961Z,27.90
2018-09-10T11:23:37.454Z,27.90
2018-09-10T11:26:05.820Z,27.90
2018-09-10T11:28:34.203Z,28.10
2018-09-10T11:31:02.556Z,27.80
2018-09-10T11:33:30.887Z,27.70
2018-09-10T11:35:59.320Z,28.00
2018-09-10T11:38:27.704Z,28.10
2018-09-10T11:40:56.088Z,28.30
2018-09-10T11:43:24.512Z,28.40
2018-09-10T11:45:52.877Z,28.70
2018-09-10T11:48:21.198Z,29.00
2018-09-10T11:50:49.576Z,29.30
2018-09-10T11:53:17.964Z,29.30
2018-09-10T11:55:46.437Z,29.80
2018-09-10T11:58:14.743Z,29.90
2018-09-10T12:00:43.133Z,30.00
2018-09-10T12:03:11.484Z,30.10
2018-09-10T12:05:39.869Z,30.30
2018-09-10T12:08:08.290Z,30.40
2018-09-10T12:10:36.677Z,30.20
2018-09-10T12:13:05.071Z,30.50
2018-09-10T12:15:33.480Z,30.80
2018-09-10T12:18:01.868Z,30.90
2018-09-10T12:20:30.242Z,31.10
2018-09-10T12:22:58.630Z,31.40
2018-09-10T12:25:27.024Z,31.00
2018-09-10T12:27:55.389Z,31.10
2018-09-10T12:30:23.732Z,31.20
2018-09-10T12:32:52.081Z,31.60
2018-09-10T12:35:20.463Z,31.60
2018-09-10T12:37:48.860Z,32.00
2018-09-10T12:40:17.240Z,31.80
2018-09-10T12:42:45.597Z,31.90
2018-09-10T12:45:14.006Z,31.80
2018-09-10T12:47:42.347Z,31.90
2018-09-10T12:50:10.758Z,32.20
2018-09-10T12:52:39.134Z,32.10
2018-09-10T12:55:07.532Z,31.80
2018-09-10T12:57:35.977Z,32.00
2018-09-10T13:00:04.923Z,31.90
2018-09-10T13:02:34.173Z,32.00
2018-09-10T13:05:02.533Z,32.40
2018-09-10T13:07:30.902Z,32.10
2018-09-10T13:09:59.320Z,32.10
2018-09-10T13:12:27.658Z,32.50
2018-09-10T13:14:56.043Z,32.60
2018-09-10T13:17:24.628Z,32.40
2018-09-10T13:19:53.008Z,32.70
2018-09-10T13:22:21.371Z,32.70
2018-09-10T13:24:49.767Z,32.70
2018-09-10T13:27:18.112Z,32.80
2018-09-10T13:29:46.521Z,32.60
2018-09-10T13:32:14.869Z,32.60
2018-09-10T13:34:43.236Z,32.40
2018-09-10T13:37:11.588Z,32.40
2018-09-10T13:39:40.039Z,32.30
2018-09-10T13:42:08.407Z,32.40
2018-09-10T13:44:36.796Z,32.60
2018-09-10T13:47:06.121Z,33.00
2018-09-10T13:49:34.537Z,32.70
2018-09-10T13:52:02.968Z,32.80
2018-09-10T13:54:31.356Z,32.20
2018-09-10T13:56:59.709Z,31.70
2018-09-10T13:59:28.099Z,31.80
2018-09-10T14:01:56.496Z,31.70
2018-09-10T14:04:24.860Z,31.90
2018-09-10T14:06:53.205Z,32.20
2018-09-10T14:09:21.617Z,32.10
2018-09-10T14:11:50.108Z,32.10
2018-09-10T14:14:18.425Z,32.00
2018-09-10T14:16:46.760Z,31.90
2018-09-10T14:19:15.191Z,31.80
2018-09-10T14:21:43.828Z,31.80
2018-09-10T14:24:12.160Z,32.00
2018-09-10T14:26:40.726Z,31.90
2018-09-10T14:29:09.133Z,31.70
2018-09-10T14:31:37.567Z,31.60
2018-09-10T14:34:06.313Z,31.70
2018-09-10T14:36:34.669Z,31.60
2018-09-10T14:39:03.160Z,31.70
2018-09-10T14:41:31.524Z,32.10
2018-09-10T14:43:59.920Z,32.50
2018-09-10T14:46:28.296Z,32.90
2018-09-10T14:48:56.821Z,33.10
2018-09-10T14:51:25.173Z,33.10
2018-09-10T14:53:54.085Z,33.10
2018-09-10T14:56:22.595Z,32.90
2018-09-10T14:58:51.085Z,32.80
2018-09-10T15:01:19.453Z,33.10
2018-09-10T15:03:47.879Z,33.20
2018-09-10T15:06:16.248Z,33.40
2018-09-10T15:08:44.626Z,33.20
2018-09-10T15:11:13.175Z,33.10
2018-09-10T15:13:41.524Z,32.80
2018-09-10T15:16:09.896Z,32.90
2018-09-10T15:18:38.338Z,32.70
2018-09-10T15:21:07.008Z,32.90
2018-09-10T15:23:35.344Z,33.00
2018-09-10T15:26:03.798Z,32.80
2018-09-10T15:28:32.108Z,32.60
2018-09-10T15:31:00.511Z,32.30
2018-09-10T15:33:28.893Z,31.70
2018-09-10T15:35:57.240Z,31.60
2018-09-10T15:38:25.577Z,31.40
2018-09-10T15:40:53.940Z,31.10
2018-09-10T15:43:22.387Z,31.10
2018-09-10T15:45:50.778Z,31.10
2018-09-10T15:48:19.136Z,31.00
2018-09-10T15:50:47.512Z,30.80
2018-09-10T15:53:15.950Z,30.70
2018-09-10T15:55:44.321Z,30.60
2018-09-10T15:58:12.669Z,30.50
2018-09-10T16:00:41.012Z,30.50
2018-09-10T16:03:09.408Z,30.30
2018-09-10T16:05:37.768Z,30.10
2018-09-10T16:08:06.185Z,30.10
2018-09-10T16:10:34.552Z,29.90
2018-09-10T16:13:02.932Z,29.60
2018-09-10T16:15:31.351Z,29.30
2018-09-10T16:17:59.698Z,29.10
2018-09-10T16:20:28.069Z,29.10
2018-09-10T16:22:56.469Z,29.20
2018-09-10T16:25:24.832Z,29.20
2018-09-10T16:27:53.228Z,29.20
2018-09-10T16:30:21.649Z,29.20
2018-09-10T16:32:50.034Z,29.20
2018-09-10T16:35:18.423Z,29.10
2018-09-10T16:37:46.787Z,29.00
2018-09-10T16:40:15.140Z,28.90
2018-09-10T16:42:43.521Z,28.90
2018-09-10T16:45:11.895Z,28.60
2018-09-10T16:47:40.308Z,28.50
2018-09-10T16:50:08.731Z,28.50
2018-09-10T16:52:37.104Z,28.40
2018-09-10T16:55:05.618Z,28.20
2018-09-10T16:57:33.969Z,28.10
2018-09-10T17:00:02.316Z,28.20
2018-09-10T17:02:30.674Z,28.10
2018-09-10T17:04:59.097Z,28.10
2018-09-10T17:07:27.510Z,28.00
2018-09-10T17:09:55.973Z,27.90
2018-09-10T17:12:24.385Z,27.70
2018-09-10T17:14:52.755Z,27.70
2018-09-10T17:17:21.093Z,27.50
2018-09-10T17:19:49.522Z,27.40
2018-09-10T17:22:17.910Z,27.30
2018-09-10T17:24:46.245Z,27.20
2018-09-10T17:27:14.587Z,27.10
2018-09-10T17:29:42.988Z,27.00
2018-09-10T17:32:11.355Z,26.90
2018-09-10T17:34:39.701Z,26.90
2018-09-10T17:37:08.138Z,26.70
2018-09-10T17:39:36.522Z,26.60
2018-09-10T17:42:04.986Z,26.50
2018-09-10T17:44:33.322Z,26.40
2018-09-10T17:47:01.797Z,26.30
2018-09-10T17:49:30.223Z,26.10
2018-09-10T17:51:58.801Z,26.10
2018-09-10T17:54:27.255Z,26.00
2018-09-10T17:56:55.698Z,25.70
2018-09-10T17:59:24.595Z,25.60
2018-09-10T18:01:52.970Z,25.40
2018-09-10T18:04:21.430Z,25.30
2018-09-10T18:06:49.824Z,25.10
2018-09-10T18:09:18.231Z,25.10
2018-09-10T18:11:46.723Z,24.90
2018-09-10T18:14:15.137Z,24.70
2018-09-10T18:16:43.555Z,24.50
2018-09-10T18:19:11.971Z,24.30
2018-09-10T18:21:40.396Z,24.20
2018-09-10T18:24:08.896Z,24.10
2018-09-10T18:26:37.292Z,24.00
2018-09-10T18:29:05.843Z,23.90
2018-09-10T18:31:34.328Z,23.80
2018-09-10T18:34:02.769Z,23.70
2018-09-10T18:36:31.142Z,23.60
2018-09-10T18:38:59.567Z,23.50
2018-09-10T18:41:28.071Z,23.40
2018-09-10T18:43:56.417Z,23.30
2018-09-10T18:46:24.784Z,23.20
2018-09-10T18:48:53.263Z,23.10
2018-09-10T18:51:21.693Z,23.00
2018-09-10T18:53:50.153Z,22.90
2018-09-10T18:56:18.579Z,22.70
2018-09-10T18:58:46.996Z,22.70
2018-09-10T19:01:15.789Z,22.60
2018-09-10T19:03:43.862Z,22.60
2018-09-10T19:06:12.227Z,22.50
2018-09-10T19:08:40.635Z,22.50
2018-09-10T19:11:09.054Z,22.40
2018-09-10T19:13:37.553Z,22.20
2018-09-10T19:16:05.959Z,22.10
2018-09-10T19:18:40.285Z,22.00
2018-09-10T19:21:09.233Z,21.90
2018-09-10T19:23:38.443Z,21.90
2018-09-10T19:26:07.236Z,21.80
2018-09-10T19:28:35.604Z,21.80
2018-09-10T19:31:04.044Z,21.70
2018-09-10T19:33:32.696Z,21.70
2018-09-10T19:36:01.108Z,21.60
2018-09-10T19:38:29.526Z,21.60
2018-09-10T19:40:58.096Z,21.50
2018-09-10T19:43:26.506Z,21.40
2018-09-10T19:45:54.926Z,21.40
2018-09-10T19:48:23.314Z,21.30
2018-09-10T19:50:51.770Z,21.30
2018-09-10T19:53:20.134Z,21.30
2018-09-10T19:55:48.510Z,21.20
2018-09-10T19:58:16.912Z,21.10
2018-09-10T20:00:45.330Z,21.00
2018-09-10T20:03:13.712Z,21.00
2018-09-10T20:05:42.171Z,21.00
2018-09-10T20:08:10.543Z,20.90
2018-09-10T20:10:38.954Z,20.80
2018-09-10T20:13:07.399Z,20.80
2018-09-10T20:15:35.804Z,20.80
2018-09-10T20:18:04.196Z,20.80
2018-09-10T20:20:32.645Z,20.70
2018-09-10T20:23:01.000Z,20.60
2018-09-10T20:25:29.424Z,20.50
2018-09-10T20:27:57.924Z,20.50
2018-09-10T20:30:26.379Z,20.40
2018-09-10T20:32:54.867Z,20.40
2018-09-10T20:35:23.200Z,20.40
2018-09-10T20:37:51.629Z,20.30
2018-09-10T20:40:20.126Z,20.30
2018-09-10T20:42:48.507Z,20.20
2018-09-10T20:45:17.233Z,20.10
2018-09-10T20:47:45.634Z,20.10
2018-09-10T20:50:13.997Z,20.00
2018-09-10T20:52:42.536Z,20.00
2018-09-10T20:55:10.955Z,20.00
2018-09-10T20:57:39.404Z,19.90
2018-09-10T21:00:07.933Z,19.80
2018-09-10T21:02:36.276Z,19.80
2018-09-10T21:05:04.848Z,19.80
2018-09-10T21:07:33.337Z,19.80
2018-09-10T21:10:01.778Z,19.80
2018-09-10T21:12:30.227Z,19.70
2018-09-10T21:14:58.611Z,19.70
2018-09-10T21:17:27.031Z,19.60
2018-09-10T21:19:55.390Z,19.60
2018-09-10T21:22:23.820Z,19.50
2018-09-10T21:24:52.172Z,19.50
2018-09-10T21:27:20.568Z,19.50
2018-09-10T21:29:48.965Z,19.40
2018-09-10T21:32:17.452Z,19.40
2018-09-10T21:34:45.832Z,19.40
2018-09-10T21:37:14.184Z,19.30
2018-09-10T21:39:42.556Z,19.20
2018-09-10T21:42:10.912Z,19.20
2018-09-10T21:44:39.256Z,19.20
2018-09-10T21:47:07.752Z,19.10
2018-09-10T21:49:36.052Z,19.10
2018-09-10T21:52:04.436Z,19.10
2018-09-10T21:54:32.808Z,19.10
2018-09-10T21:57:01.193Z,19.00
2018-09-10T21:59:29.565Z,18.90
2018-09-10T22:01:57.975Z,18.90
2018-09-10T22:04:26.283Z,18.80
2018-09-10T22:06:54.651Z,18.80
2018-09-10T22:09:22.990Z,18.80
2018-09-10T22:11:56.689Z,18.80
2018-09-10T22:14:25.059Z,18.70
2018-09-10T22:16:53.414Z,18.70
2018-09-10T22:19:22.844Z,18.60
2018-09-10T22:21:51.208Z,18.60
2018-09-10T22:24:19.680Z,18.50
2018-09-10T22:26:48.027Z,18.50
2018-09-10T22:29:16.459Z,18.50
2018-09-10T22:31:44.840Z,18.40
2018-09-10T22:34:13.187Z,18.40
2018-09-10T22:36:41.553Z,18.40
2018-09-10T22:39:12.348Z,18.40
2018-09-10T22:41:40.783Z,18.40
2018-09-10T22:44:09.235Z,18.40
2018-09-10T22:46:37.570Z,18.40
2018-09-10T22:49:07.255Z,18.30
2018-09-10T22:51:35.947Z,18.30
2018-09-10T22:54:04.459Z,18.20
2018-09-10T22:56:32.784Z,18.20
2018-09-10T22:59:01.254Z,18.10
2018-09-10T23:01:29.629Z,18.10
2018-09-10T23:03:58.016Z,18.10
2018-09-10T23:06:26.392Z,18.10
2018-09-10T23:08:54.744Z,18.10
2018-09-10T23:11:23.088Z,18.00
2018-09-10T23:13:51.528Z,18.00
2018-09-10T23:16:19.904Z,18.00
2018-09-10T23:18:48.367Z,17.90
2018-09-10T23:21:16.719Z,17.90
2018-09-10T23:23:45.094Z,17.90
2018-09-10T23:26:13.464Z,17.80
2018-09-10T23:28:41.805Z,17.80
2018-09-10T23:31:10.265Z,17.80
2018-09-10T23:33:38.576Z,17.80
2018-09-10T23:36:06.959Z,17.70
2018-09-10T23:38:35.304Z,17.70
2018-09-10T23:41:03.678Z,17.70
2018-09-10T23:43:31.996Z,17.70
2018-09-10T23:46:00.328Z,17.60
2018-09-10T23:48:28.698Z,17.60
2018-09-10T23:50:57.193Z,17.60
2018-09-10T23:53:25.568Z,17.60
2018-09-10T23:55:54.524Z,17.50
2018-09-10T23:58:22.881Z,17.50
